Time;durP1;ratioP1;P1;durP2;ratioP2;P2;SDS_P1;SDS_P2;PMS_P1;PMS_P2;Temp;Humidity;BMP_temperature;BMP_pressure;BME280_temperature;BME280_humidity;BME280_pressure;Samples;Min_cycle;Max_cycle;Signal;HPM_P1;HPM_P2
2023/09/01 00:00:30;;;;;;;8.18;4.75;;;;;;;;;;5012510;28;20728;-70
2023/09/01 00:02:55;;;;;;;8.13;5.47;;;;;;;;;;5007483;28;20689;-70
2023/09/01 00:05:20;;;;;;;7.00;4.47;;;;;;;;;;5011081;28;20186;-70
2023/09/01 00:07:45;;;;;;;7.30;4.80;;;;;;;;;;5008121;28;20209;-69
2023/09/01 00:10:11;;;;;;;7.13;4.93;;;;;;;;;;5008286;28;20193;-68
2023/09/01 00:12:36;;;;;;;9.65;4.55;;;;;;;;;;5009116;28;20226;-69
2023/09/01 00:15:03;;;;;;;13.00;4.63;;;;;;;;;;5006048;28;20243;-69
2023/09/01 00:17:28;;;;;;;9.82;4.72;;;;;;;;;;5011944;28;20178;-69
2023/09/01 00:19:54;;;;;;;8.63;4.72;;;;;;;;;;5022209;22;20235;-66
2023/09/01 00:22:19;;;;;;;7.95;5.20;;;;;;;;;;5015023;28;20237;-66
2023/09/01 00:24:45;;;;;;;8.70;4.80;;;;;;;;;;5025571;28;20186;-66
2023/09/01 00:27:10;;;;;;;10.27;5.40;;;;;;;;;;5009494;28;20183;-66
2023/09/01 00:29:35;;;;;;;9.07;4.47;;;;;;;;;;4996620;28;20230;-67
2023/09/01 00:32:01;;;;;;;7.50;4.85;;;;;;;;;;4987372;28;20199;-67
2023/09/01 00:34:29;;;;;;;7.82;4.63;;;;;;;;;;4987313;28;20975;-66
2023/09/01 00:36:54;;;;;;;11.45;5.28;;;;;;;;;;4988256;28;20203;-65
2023/09/01 00:39:19;;;;;;;8.45;4.63;;;;;;;;;;4997835;28;20192;-67
2023/09/01 00:41:45;;;;;;;7.82;4.22;;;;;;;;;;4992574;28;20689;-67
2023/09/01 00:44:13;;;;;;;9.10;4.40;;;;;;;;;;4998939;28;20205;-66
2023/09/01 00:46:39;;;;;;;8.07;4.63;;;;;;;;;;4991090;28;20218;-66
2023/09/01 00:49:04;;;;;;;12.02;5.50;;;;;;;;;;4990868;28;20243;-66
2023/09/01 00:51:29;;;;;;;9.95;5.53;;;;;;;;;;4984587;28;20305;-66
2023/09/01 00:53:55;;;;;;;9.75;5.13;;;;;;;;;;4997001;28;20238;-66
2023/09/01 00:56:21;;;;;;;8.95;5.82;;;;;;;;;;4994352;28;20180;-66
2023/09/01 00:58:46;;;;;;;14.30;7.03;;;;;;;;;;4995496;28;20195;-66
2023/09/01 01:01:11;;;;;;;11.50;5.15;;;;;;;;;;4999318;28;20184;-66
2023/09/01 01:03:37;;;;;;;12.15;5.88;;;;;;;;;;5004221;28;20205;-66
2023/09/01 01:06:21;;;;;;;13.32;5.05;;;;;;;;;;4993891;28;20180;-66
2023/09/01 01:08:49;;;;;;;7.10;5.00;;;;;;;;;;4996081;28;20206;-68
2023/09/01 01:11:24;;;;;;;12.95;5.95;;;;;;;;;;4992496;28;20535;-66
2023/09/01 01:13:52;;;;;;;9.23;5.55;;;;;;;;;;4991432;28;20249;-66
2023/09/01 01:16:18;;;;;;;11.20;5.55;;;;;;;;;;4988221;28;20254;-66
2023/09/01 01:18:45;;;;;;;9.85;5.07;;;;;;;;;;5002826;28;20350;-65
2023/09/01 01:21:15;;;;;;;9.50;6.00;;;;;;;;;;5002964;28;20186;-66
2023/09/01 01:23:42;;;;;;;8.73;5.25;;;;;;;;;;4987619;28;20266;-66
2023/09/01 01:26:08;;;;;;;10.18;6.35;;;;;;;;;;4990918;28;20522;-66
2023/09/01 01:28:33;;;;;;;8.30;5.43;;;;;;;;;;4993046;28;20194;-66
2023/09/01 01:30:58;;;;;;;14.52;5.72;;;;;;;;;;4991403;28;20195;-66
2023/09/01 01:33:23;;;;;;;8.90;5.70;;;;;;;;;;4995559;28;20207;-66
2023/09/01 01:35:57;;;;;;;10.38;5.50;;;;;;;;;;4987900;28;20220;-66
2023/09/01 01:38:27;;;;;;;9.95;5.88;;;;;;;;;;4991113;28;20694;-67
2023/09/01 01:40:55;;;;;;;7.20;5.30;;;;;;;;;;4986785;28;20549;-67
2023/09/01 01:43:22;;;;;;;14.50;5.85;;;;;;;;;;4990554;28;20219;-65
2023/09/01 01:45:48;;;;;;;11.68;6.00;;;;;;;;;;4989376;28;20183;-66
2023/09/01 01:48:13;;;;;;;13.05;6.05;;;;;;;;;;4993704;28;20663;-66
2023/09/01 01:50:40;;;;;;;11.13;6.30;;;;;;;;;;4994797;28;20186;-67
2023/09/01 01:53:05;;;;;;;10.70;5.97;;;;;;;;;;4996012;28;20190;-66
2023/09/01 01:55:32;;;;;;;11.48;4.88;;;;;;;;;;4991190;28;20262;-67
2023/09/01 01:57:58;;;;;;;8.55;5.25;;;;;;;;;;4996456;28;20229;-67
2023/09/01 02:00:23;;;;;;;14.02;5.50;;;;;;;;;;4992903;28;20175;-67
2023/09/01 02:02:49;;;;;;;15.07;5.22;;;;;;;;;;4995088;28;20509;-67
2023/09/01 02:05:14;;;;;;;9.38;5.05;;;;;;;;;;4993350;28;20191;-67
2023/09/01 02:07:39;;;;;;;10.27;5.95;;;;;;;;;;4996171;28;20171;-67
2023/09/01 02:10:07;;;;;;;12.30;6.25;;;;;;;;;;4991547;28;20202;-66
2023/09/01 02:12:33;;;;;;;11.10;5.55;;;;;;;;;;4982848;28;20212;-66
2023/09/01 02:14:59;;;;;;;8.85;5.68;;;;;;;;;;4990689;28;20172;-66
2023/09/01 02:17:24;;;;;;;11.75;6.30;;;;;;;;;;4995701;28;20180;-67
2023/09/01 02:19:49;;;;;;;9.65;6.10;;;;;;;;;;4994526;28;20215;-66
2023/09/01 02:22:14;;;;;;;8.15;5.88;;;;;;;;;;5002506;28;20182;-66
2023/09/01 02:24:39;;;;;;;10.25;5.72;;;;;;;;;;4989823;28;20168;-66
2023/09/01 02:27:05;;;;;;;8.80;5.05;;;;;;;;;;4990426;28;20183;-66
2023/09/01 02:29:31;;;;;;;10.88;5.57;;;;;;;;;;4987941;28;20199;-66
2023/09/01 02:31:56;;;;;;;10.68;6.18;;;;;;;;;;4984006;28;20187;-65
2023/09/01 02:34:21;;;;;;;12.60;5.57;;;;;;;;;;4989833;28;20606;-65
2023/09/01 02:36:47;;;;;;;10.98;6.00;;;;;;;;;;4987561;28;20180;-66
2023/09/01 02:39:12;;;;;;;10.90;5.45;;;;;;;;;;4985704;28;20195;-64
2023/09/01 02:41:37;;;;;;;10.05;5.88;;;;;;;;;;4986108;28;20180;-66
2023/09/01 02:44:02;;;;;;;10.10;5.70;;;;;;;;;;4988855;28;20187;-66
2023/09/01 02:46:28;;;;;;;11.30;5.90;;;;;;;;;;4989095;28;20192;-66
2023/09/01 02:48:53;;;;;;;7.07;5.38;;;;;;;;;;4988966;28;20204;-66
2023/09/01 02:51:18;;;;;;;10.40;5.32;;;;;;;;;;4989177;28;20202;-67
2023/09/01 02:53:43;;;;;;;10.15;5.97;;;;;;;;;;4997366;28;20225;-66
2023/09/01 02:56:09;;;;;;;9.93;5.72;;;;;;;;;;4984226;28;20172;-66
2023/09/01 02:58:34;;;;;;;9.63;5.10;;;;;;;;;;4985880;28;20294;-68
2023/09/01 03:01:07;;;;;;;14.55;6.03;;;;;;;;;;4991252;28;20571;-65
2023/09/01 03:03:32;;;;;;;10.35;5.65;;;;;;;;;;4983717;28;20241;-67
2023/09/01 03:05:57;;;;;;;8.07;5.47;;;;;;;;;;4996711;28;20279;-66
2023/09/01 03:08:23;;;;;;;12.07;5.80;;;;;;;;;;4998416;28;20212;-65
2023/09/01 03:10:48;;;;;;;12.02;5.60;;;;;;;;;;4988754;28;20291;-66
2023/09/01 03:13:14;;;;;;;9.10;5.53;;;;;;;;;;4989466;28;20291;-65
2023/09/01 03:15:41;;;;;;;11.50;5.57;;;;;;;;;;4985169;28;20176;-67
2023/09/01 03:18:08;;;;;;;11.65;5.70;;;;;;;;;;4989353;28;20202;-67
2023/09/01 03:20:34;;;;;;;13.60;6.32;;;;;;;;;;4991032;28;20176;-67
2023/09/01 03:22:59;;;;;;;13.77;5.35;;;;;;;;;;4999719;28;20184;-66
2023/09/01 03:25:24;;;;;;;8.95;6.13;;;;;;;;;;4992668;28;20187;-67
2023/09/01 03:27:49;;;;;;;12.45;6.03;;;;;;;;;;4991156;28;20279;-66
2023/09/01 03:30:15;;;;;;;10.60;6.28;;;;;;;;;;4982060;28;20186;-65
2023/09/01 03:32:41;;;;;;;8.88;6.65;;;;;;;;;;4983238;28;20211;-67
2023/09/01 03:35:06;;;;;;;13.18;6.30;;;;;;;;;;4994152;28;20797;-68
2023/09/01 03:37:32;;;;;;;10.38;6.22;;;;;;;;;;4988125;28;20231;-65
2023/09/01 03:39:57;;;;;;;12.05;7.05;;;;;;;;;;4993418;28;20199;-66
2023/09/01 03:42:22;;;;;;;9.95;6.03;;;;;;;;;;4993318;28;20258;-67
2023/09/01 03:44:47;;;;;;;11.65;6.32;;;;;;;;;;4989660;28;20183;-66
2023/09/01 03:47:13;;;;;;;15.93;7.57;;;;;;;;;;4992077;28;20267;-66
2023/09/01 03:49:38;;;;;;;13.85;6.22;;;;;;;;;;4998472;28;20227;-66
2023/09/01 03:52:04;;;;;;;12.10;7.28;;;;;;;;;;5000721;28;20680;-66
2023/09/01 03:54:29;;;;;;;14.65;6.18;;;;;;;;;;4991332;28;20267;-67
2023/09/01 03:56:54;;;;;;;10.25;5.47;;;;;;;;;;4996715;28;20171;-66
2023/09/01 03:59:19;;;;;;;11.27;6.43;;;;;;;;;;4993857;28;20192;-66
2023/09/01 04:01:45;;;;;;;10.60;5.85;;;;;;;;;;4999740;28;20263;-66
2023/09/01 04:04:11;;;;;;;11.50;6.53;;;;;;;;;;4997453;28;20168;-66
2023/09/01 04:06:36;;;;;;;7.65;4.90;;;;;;;;;;4988330;28;20254;-67
2023/09/01 04:09:02;;;;;;;8.68;5.28;;;;;;;;;;4995049;28;20347;-65
2023/09/01 04:11:28;;;;;;;12.07;5.28;;;;;;;;;;4994023;28;20306;-66
2023/09/01 04:13:55;;;;;;;13.60;6.30;;;;;;;;;;5004755;28;20293;-66
2023/09/01 04:16:21;;;;;;;15.30;5.65;;;;;;;;;;4994970;28;20255;-66
2023/09/01 04:18:47;;;;;;;10.95;5.65;;;;;;;;;;4990887;28;20208;-66
2023/09/01 04:21:12;;;;;;;14.18;5.57;;;;;;;;;;4995537;28;20188;-66
2023/09/01 04:23:39;;;;;;;10.23;5.82;;;;;;;;;;4992532;28;20722;-65
2023/09/01 04:26:04;;;;;;;15.43;5.88;;;;;;;;;;4989228;28;20184;-66
2023/09/01 04:28:29;;;;;;;18.10;6.47;;;;;;;;;;4998926;28;20730;-67
2023/09/01 04:30:59;;;;;;;8.40;5.22;;;;;;;;;;4990672;28;20175;-66
2023/09/01 04:33:26;;;;;;;11.35;5.75;;;;;;;;;;4990268;28;20214;-67
2023/09/01 04:35:57;;;;;;;10.55;5.80;;;;;;;;;;4991326;28;20631;-67
2023/09/01 04:38:22;;;;;;;10.77;5.03;;;;;;;;;;4992020;28;20254;-67
2023/09/01 04:40:55;;;;;;;14.32;5.80;;;;;;;;;;4993332;28;20175;-67
2023/09/01 04:43:21;;;;;;;10.02;5.70;;;;;;;;;;4981713;28;20195;-66
2023/09/01 04:45:46;;;;;;;13.63;5.68;;;;;;;;;;4989164;28;20179;-67
2023/09/01 04:48:11;;;;;;;11.70;5.03;;;;;;;;;;4997770;28;20211;-66
2023/09/01 04:50:37;;;;;;;10.00;6.13;;;;;;;;;;5007363;28;20183;-67
2023/09/01 04:53:03;;;;;;;10.95;5.38;;;;;;;;;;4989116;28;20208;-67
2023/09/01 04:55:28;;;;;;;9.43;5.68;;;;;;;;;;5001677;28;20167;-66
2023/09/01 04:57:53;;;;;;;8.75;5.60;;;;;;;;;;5002659;28;20659;-65
2023/09/01 05:00:19;;;;;;;7.90;5.70;;;;;;;;;;4989786;28;20542;-67
2023/09/01 05:02:44;;;;;;;9.05;5.88;;;;;;;;;;4997484;28;20175;-66
2023/09/01 05:05:10;;;;;;;13.13;6.05;;;;;;;;;;4995904;28;20187;-67
2023/09/01 05:07:35;;;;;;;8.07;5.05;;;;;;;;;;4991813;28;20575;-66
2023/09/01 05:10:01;;;;;;;10.48;5.65;;;;;;;;;;4989396;28;20208;-66
2023/09/01 05:12:26;;;;;;;7.47;6.32;;;;;;;;;;4982406;28;20211;-68
2023/09/01 05:14:51;;;;;;;10.13;5.90;;;;;;;;;;4992817;28;20179;-66
2023/09/01 05:17:16;;;;;;;8.38;5.78;;;;;;;;;;4999641;28;20179;-66
2023/09/01 05:19:41;;;;;;;9.80;6.55;;;;;;;;;;4990478;28;20215;-66
2023/09/01 05:22:07;;;;;;;12.95;5.80;;;;;;;;;;4987552;28;20196;-65
2023/09/01 05:24:32;;;;;;;8.98;5.18;;;;;;;;;;4990247;28;20183;-66
2023/09/01 05:26:57;;;;;;;11.65;6.85;;;;;;;;;;5000690;28;20191;-66
2023/09/01 05:29:23;;;;;;;7.60;5.65;;;;;;;;;;4998734;28;20199;-66
2023/09/01 05:31:48;;;;;;;10.73;6.22;;;;;;;;;;4993880;28;20190;-66
2023/09/01 05:34:13;;;;;;;7.60;5.70;;;;;;;;;;4997824;28;20191;-66
2023/09/01 05:36:39;;;;;;;10.00;5.70;;;;;;;;;;4991330;28;20183;-66
2023/09/01 05:39:04;;;;;;;8.68;5.53;;;;;;;;;;4991072;28;20690;-65
2023/09/01 05:41:29;;;;;;;9.90;4.85;;;;;;;;;;4999179;28;20171;-68
2023/09/01 05:43:54;;;;;;;9.70;5.25;;;;;;;;;;4989826;28;20585;-66
2023/09/01 05:46:20;;;;;;;9.10;5.22;;;;;;;;;;4991392;28;20171;-67
2023/09/01 05:48:45;;;;;;;10.57;5.30;;;;;;;;;;4992203;28;20226;-67
2023/09/01 05:51:10;;;;;;;7.68;5.22;;;;;;;;;;4995644;28;20176;-66
2023/09/01 05:53:35;;;;;;;11.88;6.43;;;;;;;;;;4993563;28;20246;-66
2023/09/01 05:56:00;;;;;;;11.48;5.82;;;;;;;;;;5003067;28;20221;-66
2023/09/01 05:58:26;;;;;;;11.40;5.75;;;;;;;;;;4977763;28;20199;-66
2023/09/01 06:00:51;;;;;;;12.48;5.70;;;;;;;;;;4986943;28;20205;-66
2023/09/01 06:03:16;;;;;;;10.63;5.85;;;;;;;;;;4983281;28;20188;-68
2023/09/01 06:05:41;;;;;;;10.35;5.78;;;;;;;;;;4989879;28;20198;-66
2023/09/01 06:08:07;;;;;;;10.57;5.40;;;;;;;;;;4993601;28;20172;-66
2023/09/01 06:10:32;;;;;;;8.43;5.65;;;;;;;;;;4991154;28;20660;-66
2023/09/01 06:12:58;;;;;;;14.30;6.00;;;;;;;;;;4999269;28;20202;-65
2023/09/01 06:15:23;;;;;;;10.23;5.38;;;;;;;;;;4983980;28;20202;-65
2023/09/01 06:17:48;;;;;;;12.07;6.10;;;;;;;;;;5007823;28;20274;-65
2023/09/01 06:20:13;;;;;;;13.15;6.40;;;;;;;;;;5021831;23;20230;-68
2023/09/01 06:22:39;;;;;;;8.10;5.15;;;;;;;;;;5024456;28;20290;-69
2023/09/01 06:25:04;;;;;;;13.60;5.93;;;;;;;;;;5021978;28;20272;-68
2023/09/01 06:27:29;;;;;;;9.27;5.28;;;;;;;;;;5024725;28;20244;-68
2023/09/01 06:29:56;;;;;;;9.60;5.13;;;;;;;;;;5024771;28;20281;-68
2023/09/01 06:32:22;;;;;;;10.48;5.93;;;;;;;;;;5021382;28;20202;-69
2023/09/01 06:34:47;;;;;;;9.20;5.88;;;;;;;;;;5021097;28;20179;-68
2023/09/01 06:37:12;;;;;;;13.82;6.15;;;;;;;;;;5031076;28;20182;-69
2023/09/01 06:39:37;;;;;;;8.35;5.82;;;;;;;;;;5031422;28;20201;-69
2023/09/01 06:42:02;;;;;;;12.38;5.68;;;;;;;;;;5014669;28;20185;-69
2023/09/01 06:44:28;;;;;;;9.98;6.03;;;;;;;;;;5024633;28;20182;-69
2023/09/01 06:46:53;;;;;;;8.52;5.97;;;;;;;;;;5029538;28;20660;-69
2023/09/01 06:49:18;;;;;;;10.63;5.97;;;;;;;;;;5023485;28;20623;-68
2023/09/01 06:51:44;;;;;;;8.98;6.30;;;;;;;;;;5023112;28;21238;-69
2023/09/01 06:54:09;;;;;;;15.32;6.68;;;;;;;;;;5020236;28;20474;-69
2023/09/01 06:56:34;;;;;;;9.88;6.72;;;;;;;;;;5031924;28;20232;-69
2023/09/01 06:58:59;;;;;;;12.88;7.10;;;;;;;;;;5035502;28;20198;-69
2023/09/01 07:01:27;;;;;;;8.57;6.38;;;;;;;;;;5024625;28;20175;-68
2023/09/01 07:03:53;;;;;;;12.02;7.47;;;;;;;;;;5024986;28;20257;-68
2023/09/01 07:06:18;;;;;;;11.00;6.88;;;;;;;;;;5030209;28;20262;-68
2023/09/01 07:08:43;;;;;;;13.02;7.72;;;;;;;;;;5024107;28;20706;-68
2023/09/01 07:11:10;;;;;;;10.60;6.60;;;;;;;;;;5025043;28;20181;-68
2023/09/01 07:13:36;;;;;;;9.93;6.70;;;;;;;;;;5030678;28;20202;-68
2023/09/01 07:16:01;;;;;;;9.32;5.97;;;;;;;;;;5019294;28;20216;-68
2023/09/01 07:18:26;;;;;;;7.95;6.03;;;;;;;;;;5030852;28;20289;-69
2023/09/01 07:20:56;;;;;;;11.35;6.55;;;;;;;;;;5027993;28;20191;-68
2023/09/01 07:23:21;;;;;;;9.43;7.00;;;;;;;;;;5022300;28;20313;-69
2023/09/01 07:25:47;;;;;;;8.65;6.78;;;;;;;;;;5026672;28;20269;-69
2023/09/01 07:28:12;;;;;;;10.45;6.63;;;;;;;;;;5026074;28;20185;-68
2023/09/01 07:30:37;;;;;;;11.48;6.45;;;;;;;;;;5026726;28;20202;-70
2023/09/01 07:33:03;;;;;;;8.55;6.10;;;;;;;;;;5030930;28;20191;-69
2023/09/01 07:35:28;;;;;;;11.45;6.68;;;;;;;;;;5024866;28;20182;-68
2023/09/01 07:37:53;;;;;;;11.05;6.88;;;;;;;;;;5031601;28;20532;-69
2023/09/01 07:40:18;;;;;;;10.52;6.10;;;;;;;;;;5031922;28;20182;-69
2023/09/01 07:42:44;;;;;;;12.48;6.72;;;;;;;;;;5027104;28;20644;-68
2023/09/01 07:45:09;;;;;;;12.38;6.93;;;;;;;;;;5025742;28;20178;-68
2023/09/01 07:47:34;;;;;;;13.73;6.97;;;;;;;;;;5023429;28;20566;-69
2023/09/01 07:50:00;;;;;;;15.02;7.15;;;;;;;;;;5023591;28;20273;-69
2023/09/01 07:52:25;;;;;;;10.20;6.65;;;;;;;;;;5019501;28;20198;-69
2023/09/01 07:54:51;;;;;;;12.02;7.15;;;;;;;;;;5023639;28;20183;-69
2023/09/01 07:57:16;;;;;;;10.90;7.35;;;;;;;;;;5027448;28;20178;-69
2023/09/01 07:59:41;;;;;;;9.68;6.50;;;;;;;;;;5026851;28;20228;-69
2023/09/01 08:02:06;;;;;;;9.63;6.18;;;;;;;;;;5019733;28;20174;-68
2023/09/01 08:04:31;;;;;;;11.48;6.85;;;;;;;;;;5020208;28;20175;-68
2023/09/01 08:06:59;;;;;;;13.13;6.28;;;;;;;;;;5021025;28;20288;-69
2023/09/01 08:09:24;;;;;;;11.98;6.88;;;;;;;;;;5018440;28;20251;-69
2023/09/01 08:11:50;;;;;;;8.07;6.18;;;;;;;;;;5017186;28;20178;-69
2023/09/01 08:14:15;;;;;;;10.20;6.28;;;;;;;;;;5023110;28;20264;-68
2023/09/01 08:16:40;;;;;;;7.72;5.43;;;;;;;;;;5019051;28;20805;-68
2023/09/01 08:19:06;;;;;;;9.35;5.88;;;;;;;;;;5021284;28;20290;-68
2023/09/01 08:21:31;;;;;;;13.95;5.57;;;;;;;;;;5020279;28;20261;-69
2023/09/01 08:23:56;;;;;;;10.63;5.70;;;;;;;;;;5020480;28;20182;-69
2023/09/01 08:26:21;;;;;;;7.80;5.60;;;;;;;;;;5023482;28;20663;-68
2023/09/01 08:28:47;;;;;;;7.90;5.45;;;;;;;;;;5022035;28;20675;-69
2023/09/01 08:31:12;;;;;;;9.07;5.72;;;;;;;;;;5026672;28;20186;-68
2023/09/01 08:33:37;;;;;;;12.20;6.75;;;;;;;;;;5026297;28;20230;-68
2023/09/01 08:36:03;;;;;;;11.02;6.13;;;;;;;;;;5026577;28;20206;-69
2023/09/01 08:38:29;;;;;;;7.90;5.57;;;;;;;;;;5022287;28;20231;-68
2023/09/01 08:41:01;;;;;;;11.02;7.35;;;;;;;;;;5024983;28;20716;-68
2023/09/01 08:43:31;;;;;;;9.27;5.80;;;;;;;;;;5024192;28;20197;-69
2023/09/01 08:45:57;;;;;;;7.93;5.57;;;;;;;;;;5023470;28;20258;-68
2023/09/01 08:48:22;;;;;;;8.32;5.35;;;;;;;;;;5024892;28;20571;-68
2023/09/01 08:50:49;;;;;;;8.65;5.50;;;;;;;;;;5023546;28;20549;-68
2023/09/01 08:53:14;;;;;;;9.70;4.97;;;;;;;;;;5017530;28;20893;-69
2023/09/01 08:55:39;;;;;;;12.27;5.72;;;;;;;;;;5022402;28;20181;-69
2023/09/01 08:58:04;;;;;;;8.93;5.95;;;;;;;;;;5022246;28;20186;-70
2023/09/01 09:00:30;;;;;;;8.60;5.55;;;;;;;;;;5028785;28;20224;-69
2023/09/01 09:02:55;;;;;;;8.15;6.32;;;;;;;;;;5021902;28;20192;-68
2023/09/01 09:05:21;;;;;;;8.82;5.32;;;;;;;;;;5017481;28;20208;-69
2023/09/01 09:07:56;;;;;;;8.55;5.28;;;;;;;;;;5022616;28;20178;-69
2023/09/01 09:10:31;;;;;;;7.47;6.25;;;;;;;;;;5040219;28;20248;-69
2023/09/01 09:12:56;;;;;;;7.93;5.30;;;;;;;;;;5019320;28;20225;-69
2023/09/01 09:15:21;;;;;;;12.57;6.20;;;;;;;;;;5019715;28;20174;-68
2023/09/01 09:17:48;;;;;;;6.05;5.25;;;;;;;;;;5022012;28;20178;-68
2023/09/01 09:20:14;;;;;;;8.80;5.07;;;;;;;;;;5025006;28;20324;-69
2023/09/01 09:22:48;;;;;;;9.30;6.32;;;;;;;;;;5024554;28;20878;-69
2023/09/01 09:25:28;;;;;;;7.10;5.13;;;;;;;;;;5021771;28;20680;-68
2023/09/01 09:27:54;;;;;;;8.82;6.13;;;;;;;;;;5016804;28;20178;-69
2023/09/01 09:30:19;;;;;;;9.38;5.43;;;;;;;;;;5024893;28;20202;-69
2023/09/01 09:32:44;;;;;;;9.48;5.57;;;;;;;;;;5020763;28;20825;-69
2023/09/01 09:35:13;;;;;;;7.05;4.90;;;;;;;;;;5025469;28;20552;-69
2023/09/01 09:37:41;;;;;;;12.55;6.22;;;;;;;;;;5031624;28;20220;-69
2023/09/01 09:40:11;;;;;;;10.20;5.28;;;;;;;;;;5032632;28;20207;-69
2023/09/01 09:42:38;;;;;;;6.80;5.20;;;;;;;;;;5020579;28;20189;-68
2023/09/01 09:45:04;;;;;;;7.50;5.05;;;;;;;;;;5026560;28;20202;-69
2023/09/01 09:47:30;;;;;;;8.30;5.30;;;;;;;;;;5022575;28;20302;-69
2023/09/01 09:49:56;;;;;;;7.20;5.20;;;;;;;;;;5028539;28;20731;-69
2023/09/01 09:52:21;;;;;;;6.45;5.15;;;;;;;;;;5025385;28;20325;-68
2023/09/01 09:54:47;;;;;;;10.35;5.80;;;;;;;;;;5028262;28;20249;-69
2023/09/01 09:57:14;;;;;;;7.20;4.93;;;;;;;;;;5016921;28;20178;-69
2023/09/01 09:59:46;;;;;;;8.88;5.75;;;;;;;;;;5022001;28;20683;-68
2023/09/01 10:02:19;;;;;;;8.80;5.30;;;;;;;;;;5022952;28;20175;-69
2023/09/01 10:04:45;;;;;;;9.57;6.10;;;;;;;;;;5024543;28;20281;-68
2023/09/01 10:07:11;;;;;;;11.27;6.40;;;;;;;;;;5020303;28;20185;-69
2023/09/01 10:09:36;;;;;;;7.80;5.85;;;;;;;;;;5023783;28;20194;-69
2023/09/01 10:12:02;;;;;;;6.82;5.93;;;;;;;;;;5024836;28;20265;-69
2023/09/01 10:14:29;;;;;;;7.82;5.55;;;;;;;;;;5024530;28;20201;-69
2023/09/01 10:16:55;;;;;;;6.35;5.15;;;;;;;;;;5028591;28;20702;-69
2023/09/01 10:19:22;;;;;;;6.95;5.75;;;;;;;;;;5020477;28;20218;-69
2023/09/01 10:21:47;;;;;;;8.07;5.93;;;;;;;;;;5030109;28;20244;-69
2023/09/01 10:24:13;;;;;;;8.27;5.57;;;;;;;;;;5023622;28;20183;-69
2023/09/01 10:26:39;;;;;;;16.20;5.55;;;;;;;;;;5025237;28;20179;-68
2023/09/01 10:29:04;;;;;;;7.30;5.90;;;;;;;;;;5022996;28;20213;-69
2023/09/01 10:31:34;;;;;;;9.60;6.57;;;;;;;;;;5019976;28;20201;-69
2023/09/01 10:34:07;;;;;;;6.88;5.72;;;;;;;;;;5027077;28;20210;-69
2023/09/01 10:36:33;;;;;;;7.45;5.53;;;;;;;;;;5026948;28;20170;-68
2023/09/01 10:39:16;;;;;;;8.30;6.28;;;;;;;;;;5027066;28;20257;-69
2023/09/01 10:41:52;;;;;;;9.05;6.78;;;;;;;;;;5021141;28;20170;-68
2023/09/01 10:44:17;;;;;;;6.72;5.45;;;;;;;;;;5025502;28;20174;-69
2023/09/01 10:46:42;;;;;;;7.75;5.47;;;;;;;;;;5027138;28;20596;-69
2023/09/01 10:49:10;;;;;;;10.95;7.07;;;;;;;;;;5027265;28;20641;-68
2023/09/01 10:51:39;;;;;;;7.50;6.20;;;;;;;;;;5030292;28;20217;-70
2023/09/01 10:54:13;;;;;;;7.15;6.13;;;;;;;;;;5028359;28;20654;-70
2023/09/01 10:56:54;;;;;;;7.05;5.45;;;;;;;;;;5019092;28;20202;-69
2023/09/01 10:59:40;;;;;;;7.68;5.88;;;;;;;;;;5023287;28;20194;-69
2023/09/01 11:02:18;;;;;;;9.93;5.88;;;;;;;;;;5028010;28;20190;-69
2023/09/01 11:04:43;;;;;;;9.20;6.05;;;;;;;;;;5027113;28;20181;-69
2023/09/01 11:07:10;;;;;;;6.57;5.38;;;;;;;;;;5022840;28;20182;-69
2023/09/01 11:09:35;;;;;;;6.90;5.50;;;;;;;;;;5028020;28;20194;-69
2023/09/01 11:12:00;;;;;;;8.03;5.53;;;;;;;;;;5025096;28;20181;-69
2023/09/01 11:14:26;;;;;;;8.20;5.33;;;;;;;;;;5024541;28;20479;-69
2023/09/01 11:16:51;;;;;;;6.07;5.47;;;;;;;;;;5030285;28;20846;-69
2023/09/01 11:19:16;;;;;;;6.25;5.65;;;;;;;;;;5028193;28;20210;-69
2023/09/01 11:21:41;;;;;;;12.75;5.95;;;;;;;;;;5022282;28;20177;-69
2023/09/01 11:24:07;;;;;;;7.65;6.15;;;;;;;;;;5024318;28;20405;-69
2023/09/01 11:26:32;;;;;;;7.85;6.50;;;;;;;;;;5020734;28;20205;-70
2023/09/01 11:28:58;;;;;;;9.35;6.13;;;;;;;;;;5019065;28;20198;-68
2023/09/01 11:31:35;;;;;;;8.73;5.70;;;;;;;;;;5029850;28;20189;-68
2023/09/01 11:34:01;;;;;;;8.02;6.03;;;;;;;;;;5020675;28;20203;-70
2023/09/01 11:36:27;;;;;;;9.45;6.50;;;;;;;;;;5029938;28;20177;-69
2023/09/01 11:38:52;;;;;;;7.10;6.30;;;;;;;;;;5023399;28;20253;-69
2023/09/01 11:41:19;;;;;;;7.70;6.05;;;;;;;;;;5029808;28;20261;-70
2023/09/01 11:43:44;;;;;;;9.90;6.18;;;;;;;;;;5026716;28;20269;-69
2023/09/01 11:46:10;;;;;;;7.70;6.20;;;;;;;;;;5020942;28;20928;-69
2023/09/01 11:48:35;;;;;;;5.82;4.85;;;;;;;;;;5019887;28;20178;-69
2023/09/01 11:51:01;;;;;;;8.50;6.78;;;;;;;;;;5021802;28;20185;-69
2023/09/01 11:53:27;;;;;;;7.38;5.80;;;;;;;;;;5025363;28;20244;-69
2023/09/01 11:55:57;;;;;;;8.20;6.60;;;;;;;;;;5026940;28;20194;-69
2023/09/01 11:58:22;;;;;;;8.98;5.97;;;;;;;;;;5019539;28;20233;-69
2023/09/01 12:00:49;;;;;;;12.00;6.15;;;;;;;;;;5022322;28;20679;-69
2023/09/01 12:03:19;;;;;;;8.40;5.90;;;;;;;;;;5019572;28;20257;-69
2023/09/01 12:05:44;;;;;;;7.72;5.80;;;;;;;;;;5026611;28;20186;-69
2023/09/01 12:08:10;;;;;;;7.75;6.57;;;;;;;;;;5028401;28;20179;-69
2023/09/01 12:10:35;;;;;;;7.63;6.47;;;;;;;;;;5029030;28;20256;-70
2023/09/01 12:13:05;;;;;;;7.78;6.20;;;;;;;;;;5024443;28;20725;-69
2023/09/01 12:15:30;;;;;;;7.60;6.20;;;;;;;;;;5027121;28;20735;-69
2023/09/01 12:17:55;;;;;;;5.43;4.85;;;;;;;;;;5022049;28;20265;-69
2023/09/01 12:20:21;;;;;;;7.53;5.25;;;;;;;;;;5031208;23;20684;-68
2023/09/01 12:22:47;;;;;;;5.88;4.80;;;;;;;;;;5026722;28;20693;-69
2023/09/01 12:25:14;;;;;;;7.18;6.22;;;;;;;;;;5022655;28;20171;-69
2023/09/01 12:27:39;;;;;;;6.03;5.18;;;;;;;;;;5022666;28;20190;-69
2023/09/01 12:30:05;;;;;;;7.30;5.07;;;;;;;;;;5023171;28;20203;-69
2023/09/01 12:32:30;;;;;;;7.43;5.78;;;;;;;;;;5025532;28;20452;-69
2023/09/01 12:34:55;;;;;;;6.07;5.47;;;;;;;;;;5021813;28;20552;-69
2023/09/01 12:37:20;;;;;;;8.48;5.47;;;;;;;;;;5022565;28;20346;-69
2023/09/01 12:39:46;;;;;;;6.45;5.75;;;;;;;;;;5022317;28;20217;-68
2023/09/01 12:42:11;;;;;;;7.17;5.77;;;;;;;;;;5018557;28;20174;-69
2023/09/01 12:44:37;;;;;;;8.77;5.70;;;;;;;;;;5023632;28;20454;-69
2023/09/01 12:47:02;;;;;;;8.55;5.53;;;;;;;;;;5023708;28;20190;-69
2023/09/01 12:49:28;;;;;;;7.25;5.32;;;;;;;;;;5024455;28;20198;-69
2023/09/01 12:51:53;;;;;;;6.68;5.93;;;;;;;;;;5020687;28;20181;-69
2023/09/01 12:54:19;;;;;;;6.50;5.63;;;;;;;;;;5017803;28;20198;-69
2023/09/01 12:56:44;;;;;;;7.32;5.65;;;;;;;;;;5025197;28;20174;-69
2023/09/01 12:59:09;;;;;;;7.82;6.07;;;;;;;;;;5025857;28;20186;-69
2023/09/01 13:01:35;;;;;;;8.25;6.07;;;;;;;;;;5021264;28;20223;-68
2023/09/01 13:04:00;;;;;;;6.32;5.70;;;;;;;;;;5022416;28;20194;-69
2023/09/01 13:06:25;;;;;;;8.07;5.80;;;;;;;;;;5024984;28;20233;-69
2023/09/01 13:08:50;;;;;;;6.40;5.70;;;;;;;;;;5024542;28;20182;-68
2023/09/01 13:11:15;;;;;;;7.90;6.75;;;;;;;;;;5025943;28;20212;-68
2023/09/01 13:13:42;;;;;;;11.13;6.97;;;;;;;;;;5021635;28;20252;-70
2023/09/01 13:16:11;;;;;;;8.65;7.40;;;;;;;;;;5013794;28;20606;-68
2023/09/01 13:18:38;;;;;;;10.40;7.88;;;;;;;;;;5028174;28;20177;-70
2023/09/01 13:21:04;;;;;;;10.43;8.20;;;;;;;;;;5023613;28;20457;-70
2023/09/01 13:23:29;;;;;;;10.85;7.50;;;;;;;;;;5028023;28;20679;-69
2023/09/01 13:25:54;;;;;;;12.10;8.30;;;;;;;;;;5022162;28;20664;-69
2023/09/01 13:28:22;;;;;;;11.75;8.40;;;;;;;;;;5015033;28;20301;-69
2023/09/01 13:30:48;;;;;;;12.35;9.65;;;;;;;;;;5026808;28;20648;-70
2023/09/01 13:33:16;;;;;;;12.65;9.15;;;;;;;;;;5024504;28;20249;-70
2023/09/01 13:35:45;;;;;;;10.32;8.63;;;;;;;;;;5022186;28;20259;-70
2023/09/01 13:38:11;;;;;;;10.23;7.78;;;;;;;;;;5023468;28;20240;-70
2023/09/01 13:40:37;;;;;;;13.82;8.93;;;;;;;;;;5018524;28;20222;-70
2023/09/01 13:43:02;;;;;;;11.27;8.10;;;;;;;;;;5020646;28;20210;-70
2023/09/01 13:45:27;;;;;;;11.65;7.97;;;;;;;;;;5021000;28;20297;-70
2023/09/01 13:47:53;;;;;;;8.52;5.85;;;;;;;;;;5019414;28;20187;-69
2023/09/01 13:50:18;;;;;;;8.45;6.55;;;;;;;;;;5017893;28;20241;-70
2023/09/01 13:52:43;;;;;;;8.68;6.82;;;;;;;;;;5027662;28;20198;-70
2023/09/01 13:55:08;;;;;;;7.10;5.90;;;;;;;;;;5019545;28;20314;-70
2023/09/01 13:57:34;;;;;;;7.28;6.00;;;;;;;;;;5026898;28;20285;-70
2023/09/01 13:59:59;;;;;;;6.82;6.13;;;;;;;;;;5018663;28;20198;-70
2023/09/01 14:02:24;;;;;;;6.80;5.25;;;;;;;;;;5019201;28;20216;-70
2023/09/01 14:04:50;;;;;;;6.40;5.20;;;;;;;;;;5019806;28;20643;-70
2023/09/01 14:07:15;;;;;;;5.93;5.07;;;;;;;;;;5025859;28;20515;-70
2023/09/01 14:09:40;;;;;;;6.70;4.80;;;;;;;;;;5024795;28;20447;-70
2023/09/01 14:12:05;;;;;;;6.53;5.32;;;;;;;;;;5020507;28;20518;-70
2023/09/01 14:14:31;;;;;;;7.55;6.75;;;;;;;;;;5019959;28;20288;-70
2023/09/01 14:16:56;;;;;;;6.53;5.85;;;;;;;;;;5022466;28;20185;-70
2023/09/01 14:19:21;;;;;;;7.63;5.60;;;;;;;;;;5020105;28;20237;-70
2023/09/01 14:21:47;;;;;;;7.65;5.85;;;;;;;;;;5019481;28;20201;-70
2023/09/01 14:24:12;;;;;;;7.88;6.28;;;;;;;;;;5023659;28;20205;-71
2023/09/01 14:26:37;;;;;;;9.00;6.50;;;;;;;;;;5023208;28;20561;-71
2023/09/01 14:29:04;;;;;;;7.60;6.25;;;;;;;;;;5022903;28;20195;-70
2023/09/01 14:31:29;;;;;;;7.07;6.10;;;;;;;;;;5021159;28;20228;-70